Time;durP1;ratioP1;P1;durP2;ratioP2;P2;SDS_P1;SDS_P2;PMS_P1;PMS_P2;Temp;Humidity;BMP_temperature;BMP_pressure;BME280_temperature;BME280_humidity;BME280_pressure;Samples;Min_cycle;Max_cycle;Signal;HPM_P1;HPM_P2
2022/07/07 00:02:16;;;;;;;3.63;2.70;;;22.50;93.90;;;;;;5093492;28;20722;-87
2022/07/07 00:04:42;;;;;;;2.57;2.37;;;22.40;93.90;;;;;;5092424;28;20181;-87
2022/07/07 00:07:08;;;;;;;2.57;2.33;;;22.40;93.90;;;;;;5093034;28;20705;-87
2022/07/07 00:09:34;;;;;;;2.20;2.00;;;22.40;93.90;;;;;;5093562;28;20176;-88
2022/07/07 00:12:00;;;;;;;2.07;1.90;;;22.40;93.80;;;;;;5092318;28;20451;-88
2022/07/07 00:14:26;;;;;;;2.30;2.20;;;22.40;93.80;;;;;;5094626;28;20421;-87
2022/07/07 00:16:52;;;;;;;4.03;2.10;;;22.40;93.80;;;;;;5097376;28;20587;-88
2022/07/07 00:19:18;;;;;;;2.27;2.03;;;22.40;93.90;;;;;;5096294;28;20437;-87
2022/07/07 00:21:44;;;;;;;3.23;2.37;;;22.30;93.90;;;;;;5098842;28;20496;-88
2022/07/07 00:24:10;;;;;;;2.60;2.40;;;22.30;93.90;;;;;;5098060;28;20440;-87
2022/07/07 00:26:36;;;;;;;2.37;2.17;;;22.30;93.90;;;;;;5096015;28;20581;-88
2022/07/07 00:29:02;;;;;;;3.00;2.40;;;22.30;94.00;;;;;;5095672;28;20177;-88
2022/07/07 00:31:27;;;;;;;2.17;2.00;;;22.30;93.90;;;;;;5095623;28;20445;-88
2022/07/07 00:33:53;;;;;;;2.23;2.03;;;22.30;94.00;;;;;;5095700;28;20180;-87
2022/07/07 00:36:19;;;;;;;3.50;2.20;;;22.30;93.90;;;;;;5097230;28;20206;-88
2022/07/07 00:38:45;;;;;;;2.80;2.10;;;22.30;93.90;;;;;;5096614;28;20641;-88
2022/07/07 00:41:10;;;;;;;2.77;2.57;;;22.30;94.00;;;;;;5096912;28;20188;-88
2022/07/07 00:43:37;;;;;;;3.20;2.30;;;22.30;94.10;;;;;;5096632;28;20417;-87
2022/07/07 00:46:03;;;;;;;2.63;2.43;;;22.30;94.00;;;;;;5096712;28;20712;-88
2022/07/07 00:48:33;;;;;;;2.60;2.20;;;22.20;94.00;;;;;;5095315;28;20459;-87
2022/07/07 00:50:59;;;;;;;2.27;2.03;;;22.30;94.10;;;;;;5096379;28;20918;-88
2022/07/07 00:53:25;;;;;;;2.03;1.93;;;22.20;94.10;;;;;;5095056;28;20436;-87
2022/07/07 00:55:50;;;;;;;2.20;2.03;;;22.20;94.20;;;;;;5095169;28;20176;-87
2022/07/07 00:58:16;;;;;;;2.53;2.33;;;22.20;94.10;;;;;;5096193;28;20541;-88
2022/07/07 01:00:42;;;;;;;2.20;2.10;;;22.20;94.30;;;;;;5095149;28;20181;-88
2022/07/07 01:03:09;;;;;;;2.80;2.50;;;22.20;94.40;;;;;;5095247;28;20956;-88
2022/07/07 01:05:36;;;;;;;2.33;2.17;;;22.10;94.50;;;;;;5095946;28;20232;-88
2022/07/07 01:08:04;;;;;;;2.33;2.13;;;22.10;94.80;;;;;;5094639;28;20429;-88
2022/07/07 01:10:31;;;;;;;3.57;2.40;;;22.00;95.00;;;;;;5094782;28;20460;-88
2022/07/07 01:13:01;;;;;;;2.53;2.33;;;22.00;95.30;;;;;;5096743;28;20843;-88
2022/07/07 01:15:26;;;;;;;3.50;2.70;;;22.00;95.10;;;;;;5094950;28;20783;-88
2022/07/07 01:17:52;;;;;;;2.80;2.60;;;22.00;95.20;;;;;;5095866;28;20428;-88
2022/07/07 01:20:20;;;;;;;2.50;2.30;;;21.90;94.90;;;;;;5095163;28;20652;-88
2022/07/07 01:22:49;;;;;;;3.13;2.00;;;21.90;94.90;;;;;;5095579;28;20192;-88
2022/07/07 01:25:15;;;;;;;2.10;1.90;;;21.90;95.30;;;;;;5095792;28;20428;-88
2022/07/07 01:27:41;;;;;;;3.70;2.97;;;21.90;95.00;;;;;;5094375;28;20500;-88
2022/07/07 01:30:07;;;;;;;3.03;2.80;;;21.80;95.10;;;;;;5094519;28;20179;-88
2022/07/07 01:32:32;;;;;;;2.60;2.40;;;21.80;95.10;;;;;;5094425;28;20197;-88
2022/07/07 01:34:58;;;;;;;2.90;2.70;;;21.80;95.50;;;;;;5094222;28;20401;-87
2022/07/07 01:37:24;;;;;;;2.47;2.27;;;21.70;95.30;;;;;;5095458;28;20549;-87
2022/07/07 01:39:51;;;;;;;2.90;2.70;;;21.70;95.30;;;;;;5095347;28;20168;-87
2022/07/07 01:42:17;;;;;;;2.90;2.70;;;21.60;95.30;;;;;;5095407;28;20506;-87
2022/07/07 01:44:44;;;;;;;2.53;2.37;;;21.60;95.40;;;;;;5094113;28;20410;-87
2022/07/07 01:47:11;;;;;;;2.57;2.37;;;21.50;95.40;;;;;;5096203;28;20249;-87
2022/07/07 01:49:37;;;;;;;2.90;2.70;;;21.50;95.50;;;;;;5094831;28;20780;-87
2022/07/07 01:52:04;;;;;;;3.00;2.70;;;21.50;95.50;;;;;;5094348;28;20514;-88
2022/07/07 01:54:31;;;;;;;3.00;2.60;;;21.40;95.50;;;;;;5094779;28;20492;-87
2022/07/07 01:56:58;;;;;;;2.67;2.47;;;21.40;95.60;;;;;;5094189;28;20532;-88
2022/07/07 01:59:23;;;;;;;2.43;2.17;;;21.40;95.70;;;;;;5095410;28;20421;-87
2022/07/07 02:01:50;;;;;;;2.43;2.30;;;21.30;96.00;;;;;;5093842;28;20483;-88
2022/07/07 02:04:15;;;;;;;4.10;2.63;;;21.30;95.70;;;;;;5095023;28;20434;-88
2022/07/07 02:06:41;;;;;;;2.30;1.93;;;21.30;95.70;;;;;;5093322;28;20480;-88
2022/07/07 02:09:07;;;;;;;2.90;2.60;;;21.20;95.80;;;;;;5093760;28;20180;-87
2022/07/07 02:11:33;;;;;;;3.33;2.63;;;21.20;95.80;;;;;;5093708;28;20211;-88
2022/07/07 02:13:59;;;;;;;2.70;2.50;;;21.10;96.00;;;;;;5094937;28;20404;-88
2022/07/07 02:16:25;;;;;;;2.60;2.40;;;21.10;96.00;;;;;;5095035;28;21016;-88
2022/07/07 02:18:57;;;;;;;2.50;2.30;;;21.00;96.00;;;;;;5094800;28;20179;-87
2022/07/07 02:21:23;;;;;;;2.43;2.33;;;21.00;96.10;;;;;;5093529;28;20505;-88
2022/07/07 02:23:51;;;;;;;3.57;3.27;;;21.00;96.50;;;;;;5093621;28;20828;-87
2022/07/07 02:26:17;;;;;;;2.90;2.60;;;20.90;96.30;;;;;;5093468;28;20512;-88
2022/07/07 02:28:43;;;;;;;5.27;2.60;;;20.80;96.30;;;;;;5094676;28;20401;-87
2022/07/07 02:31:09;;;;;;;3.23;2.93;;;20.80;96.40;;;;;;5094778;28;21292;-88
2022/07/07 02:33:35;;;;;;;2.57;2.37;;;20.80;96.40;;;;;;5094652;28;20207;-88
2022/07/07 02:36:03;;;;;;;3.13;2.50;;;20.80;96.50;;;;;;5094337;28;20420;-87
2022/07/07 02:38:29;;;;;;;4.40;2.53;;;20.70;96.50;;;;;;5093295;28;20515;-88
2022/07/07 02:40:55;;;;;;;3.00;2.63;;;20.70;96.60;;;;;;5095415;28;20421;-87
2022/07/07 02:43:22;;;;;;;2.83;2.63;;;20.70;96.60;;;;;;5094367;28;20434;-87
2022/07/07 02:45:50;;;;;;;3.17;2.87;;;20.60;96.90;;;;;;5094264;28;20459;-88
2022/07/07 02:48:21;;;;;;;4.77;2.90;;;20.60;96.70;;;;;;5093069;28;20971;-88
2022/07/07 02:50:47;;;;;;;5.10;2.47;;;20.60;96.70;;;;;;5093235;28;20448;-88
2022/07/07 02:53:14;;;;;;;2.80;2.60;;;20.50;96.80;;;;;;5093024;28;20792;-88
2022/07/07 02:55:40;;;;;;;3.27;2.83;;;20.50;96.80;;;;;;5093033;28;20843;-88
2022/07/07 02:58:08;;;;;;;2.70;2.50;;;20.50;96.90;;;;;;5092850;28;20432;-87
2022/07/07 03:00:34;;;;;;;3.07;2.80;;;20.50;97.00;;;;;;5094255;28;20424;-87
2022/07/07 03:03:01;;;;;;;3.60;3.30;;;20.40;97.10;;;;;;5092711;28;20527;-88
2022/07/07 03:05:27;;;;;;;2.73;2.53;;;20.40;97.20;;;;;;5092644;28;21000;-88
2022/07/07 03:07:53;;;;;;;3.00;2.80;;;20.40;97.30;;;;;;5092716;28;20471;-88
2022/07/07 03:10:19;;;;;;;3.07;2.87;;;20.40;97.40;;;;;;5092993;28;20278;-88
2022/07/07 03:12:44;;;;;;;3.17;2.87;;;20.30;97.50;;;;;;5093436;28;20224;-87
2022/07/07 03:15:10;;;;;;;2.87;2.67;;;20.30;97.70;;;;;;5092797;28;20179;-87
2022/07/07 03:17:40;;;;;;;2.80;2.60;;;20.30;97.90;;;;;;5092673;28;20203;-88
2022/07/07 03:20:06;;;;;;;5.20;3.83;;;20.30;97.70;;;;;;5093997;28;20807;-88
2022/07/07 03:22:32;;;;;;;4.20;3.20;;;20.40;97.70;;;;;;5093811;28;20443;-88
2022/07/07 03:24:57;;;;;;;4.17;3.03;;;20.40;98.10;;;;;;5092701;28;20450;-88
2022/07/07 03:27:23;;;;;;;2.93;2.70;;;20.40;97.80;;;;;;5093628;28;20216;-87
2022/07/07 03:29:50;;;;;;;4.00;2.83;;;20.40;97.80;;;;;;5092637;28;20176;-87
2022/07/07 03:32:16;;;;;;;2.90;2.70;;;20.40;97.80;;;;;;5094236;28;20226;-88
2022/07/07 03:34:41;;;;;;;5.27;3.23;;;20.40;97.90;;;;;;5094269;28;20762;-87
2022/07/07 03:37:07;;;;;;;3.50;3.10;;;20.40;98.00;;;;;;5092876;28;20261;-89
2022/07/07 03:39:33;;;;;;;4.93;2.77;;;20.40;98.10;;;;;;5092636;28;20232;-88
2022/07/07 03:41:58;;;;;;;2.90;2.70;;;20.40;98.20;;;;;;5094076;28;20279;-88
2022/07/07 03:44:25;;;;;;;4.00;3.10;;;20.40;98.30;;;;;;5092722;28;20181;-87
2022/07/07 03:46:51;;;;;;;2.93;2.73;;;20.30;98.40;;;;;;5094046;28;20223;-88
2022/07/07 03:49:16;;;;;;;5.20;3.23;;;20.30;98.40;;;;;;5096000;28;20404;-87
2022/07/07 03:51:43;;;;;;;3.87;2.97;;;20.30;98.90;;;;;;5096646;28;20471;-88
2022/07/07 03:54:27;;;;;;;3.63;3.33;;;20.40;98.70;;;;;;5097488;28;20184;-88
2022/07/07 03:56:53;;;;;;;3.00;2.80;;;20.40;98.80;;;;;;5096528;28;20460;-88
2022/07/07 03:59:18;;;;;;;3.67;3.37;;;20.40;98.90;;;;;;5096333;28;20462;-88
2022/07/07 04:01:47;;;;;;;40.83;21.77;;;20.40;98.90;;;;;;5096348;28;20649;-87
2022/07/07 04:04:14;;;;;;;54.17;29.63;;;20.40;99.10;;;;;;5095695;28;20544;-86
2022/07/07 04:06:40;;;;;;;7.27;6.57;;;20.40;99.20;;;;;;5094859;28;20491;-87
2022/07/07 04:09:06;;;;;;;3.80;3.47;;;20.40;99.30;;;;;;5096857;28;20404;-88
2022/07/07 04:11:32;;;;;;;6.03;3.43;;;20.50;99.30;;;;;;5099575;28;20207;-87
2022/07/07 04:13:57;;;;;;;4.27;3.87;;;20.50;99.50;;;;;;5097352;28;20179;-87
2022/07/07 04:16:23;;;;;;;4.50;4.10;;;20.50;99.60;;;;;;5095899;28;20207;-88
2022/07/07 04:18:48;;;;;;;4.40;3.97;;;20.50;99.90;;;;;;5095927;28;20183;-87
2022/07/07 04:21:14;;;;;;;4.37;3.97;;;20.50;99.90;;;;;;5097686;28;20263;-88
2022/07/07 04:23:40;;;;;;;4.10;3.50;;;20.50;99.90;;;;;;5108155;28;20180;-87
2022/07/07 04:26:06;;;;;;;3.90;3.50;;;20.50;99.90;;;;;;5104887;28;20219;-88
2022/07/07 04:28:31;;;;;;;8.73;3.47;;;20.50;99.90;;;;;;5095640;28;20672;-87
2022/07/07 04:30:57;;;;;;;4.40;4.00;;;20.50;99.90;;;;;;5095783;28;20176;-88
2022/07/07 04:33:23;;;;;;;4.03;3.73;;;20.50;99.90;;;;;;5096646;28;20204;-88
2022/07/07 04:35:49;;;;;;;4.40;4.03;;;20.60;99.90;;;;;;5095750;28;20250;-88
2022/07/07 04:38:14;;;;;;;4.30;3.97;;;20.60;99.90;;;;;;5095639;28;20525;-88
2022/07/07 04:40:41;;;;;;;4.37;3.97;;;20.70;99.90;;;;;;5095631;28;20179;-88
2022/07/07 04:43:07;;;;;;;4.40;4.00;;;20.70;99.90;;;;;;5096569;28;20563;-88
2022/07/07 04:45:33;;;;;;;4.53;4.10;;;20.80;99.90;;;;;;5095307;28;20432;-88
2022/07/07 04:47:59;;;;;;;5.73;4.50;;;20.80;99.90;;;;;;5095243;28;20455;-88
2022/07/07 04:50:25;;;;;;;3.93;3.43;;;20.90;99.90;;;;;;5095148;28;20498;-88
2022/07/07 04:52:52;;;;;;;4.50;4.10;;;20.90;99.90;;;;;;5095317;28;20200;-88
2022/07/07 04:55:18;;;;;;;4.00;3.70;;;21.00;99.90;;;;;;5096543;28;20491;-88
2022/07/07 04:57:44;;;;;;;6.03;3.80;;;21.00;99.90;;;;;;5100800;28;20530;-88
2022/07/07 05:00:10;;;;;;;3.27;3.03;;;21.10;99.90;;;;;;5113425;28;20548;-87
2022/07/07 05:02:35;;;;;;;4.80;3.70;;;21.10;99.90;;;;;;5113574;28;20203;-91
2022/07/07 05:05:01;;;;;;;4.67;4.00;;;21.20;99.90;;;;;;5113562;28;20971;-87
2022/07/07 05:07:27;;;;;;;4.27;3.87;;;21.20;99.90;;;;;;5115550;28;20214;-88
2022/07/07 05:09:52;;;;;;;4.23;3.93;;;21.30;99.90;;;;;;5095175;28;20640;-87
2022/07/07 05:12:18;;;;;;;3.07;2.77;;;21.40;99.90;;;;;;5096599;28;20270;-88
2022/07/07 05:14:44;;;;;;;4.97;4.57;;;21.50;99.90;;;;;;5112544;28;20207;-89
2022/07/07 05:17:09;;;;;;;4.77;3.90;;;21.50;99.90;;;;;;5096276;28;20212;-89
2022/07/07 05:19:35;;;;;;;3.20;2.97;;;21.60;99.90;;;;;;5094157;28;20222;-89
2022/07/07 05:22:01;;;;;;;3.97;3.53;;;21.70;99.90;;;;;;5094373;28;20252;-89
2022/07/07 05:24:26;;;;;;;4.17;3.77;;;21.80;99.90;;;;;;5097284;28;20218;-89
2022/07/07 05:26:52;;;;;;;4.50;4.10;;;21.90;99.90;;;;;;5105664;28;20234;-88
2022/07/07 05:29:18;;;;;;;3.77;3.47;;;21.90;99.90;;;;;;5096886;28;20179;-89
2022/07/07 05:31:46;;;;;;;4.30;3.90;;;22.00;99.90;;;;;;5100465;28;20188;-89
2022/07/07 05:34:12;;;;;;;4.83;4.13;;;22.10;99.90;;;;;;5109094;28;20557;-88
2022/07/07 05:36:37;;;;;;;4.40;3.20;;;22.20;99.90;;;;;;5102806;28;20460;-88
2022/07/07 05:39:03;;;;;;;3.50;3.20;;;22.30;99.90;;;;;;5108470;28;20700;-88
2022/07/07 05:41:29;;;;;;;4.17;3.77;;;22.40;99.90;;;;;;5094775;28;20291;-90
2022/07/07 05:43:55;;;;;;;3.43;3.13;;;22.40;99.90;;;;;;5112105;28;20557;-88
2022/07/07 05:46:20;;;;;;;4.10;3.80;;;22.50;99.90;;;;;;5103207;28;20512;-89
2022/07/07 05:48:46;;;;;;;3.23;2.87;;;22.60;99.90;;;;;;5107022;28;20187;-88
2022/07/07 05:51:12;;;;;;;3.87;3.57;;;22.60;99.90;;;;;;5091216;28;20637;-89
2022/07/07 05:53:37;;;;;;;3.80;3.50;;;22.70;99.90;;;;;;5105539;28;20657;-89
2022/07/07 05:56:03;;;;;;;3.40;2.90;;;22.80;99.90;;;;;;5103031;28;20191;-88
2022/07/07 05:58:29;;;;;;;3.17;2.97;;;22.90;99.90;;;;;;5103907;28;20224;-89
2022/07/07 06:00:55;;;;;;;2.73;2.53;;;23.00;99.90;;;;;;5112686;28;20428;-87
2022/07/07 06:03:21;;;;;;;3.40;3.10;;;23.00;99.90;;;;;;5112743;28;20203;-86
2022/07/07 06:05:47;;;;;;;3.40;3.10;;;23.10;99.90;;;;;;5113311;28;20228;-87
2022/07/07 06:08:13;;;;;;;3.50;3.20;;;23.20;99.90;;;;;;5113629;28;20883;-91
2022/07/07 06:10:38;;;;;;;7.00;3.27;;;23.20;99.90;;;;;;5098289;28;20188;-93
2022/07/07 06:13:04;;;;;;;5.00;3.00;;;23.30;99.90;;;;;;5092623;28;20219;-93
2022/07/07 06:15:33;;;;;;;3.23;2.97;;;23.30;99.90;;;;;;5109113;28;20604;-94
2022/07/07 06:18:05;;;;;;;3.30;3.07;;;23.40;99.90;;;;;;5105233;28;20497;-92
2022/07/07 06:20:32;;;;;;;4.30;3.30;;;23.40;99.90;;;;;;5094397;28;20433;-93
2022/07/07 06:22:58;;;;;;;3.10;2.90;;;23.50;99.90;;;;;;5110559;28;20990;-94
2022/07/07 06:25:26;;;;;;;4.30;3.20;;;23.50;99.90;;;;;;5095865;28;20485;-92
2022/07/07 06:27:52;;;;;;;3.10;2.90;;;23.60;99.90;;;;;;5109739;28;20227;-94
2022/07/07 06:30:18;;;;;;;3.40;3.10;;;23.60;99.90;;;;;;5095782;28;20432;-93
2022/07/07 06:32:44;;;;;;;4.67;2.93;;;23.70;99.90;;;;;;5096432;28;20955;-91
2022/07/07 06:35:10;;;;;;;3.07;2.87;;;23.70;99.90;;;;;;5107492;28;20197;-92
2022/07/07 06:37:35;;;;;;;3.33;3.03;;;23.80;99.90;;;;;;5106110;28;20463;-91
2022/07/07 06:40:01;;;;;;;2.93;2.73;;;23.90;99.90;;;;;;5100251;28;20432;-91
2022/07/07 06:42:27;;;;;;;7.43;3.67;;;23.90;99.90;;;;;;5096715;28;20269;-91
2022/07/07 06:44:52;;;;;;;5.10;2.63;;;24.00;99.90;;;;;;5109800;28;20247;-92
2022/07/07 06:47:18;;;;;;;3.30;3.00;;;24.00;99.90;;;;;;5109980;28;20224;-92
2022/07/07 06:49:44;;;;;;;3.67;3.37;;;24.10;99.90;;;;;;5096538;28;20176;-95
2022/07/07 06:52:10;;;;;;;3.63;3.20;;;24.10;99.90;;;;;;5097382;28;20659;-93
2022/07/07 06:54:38;;;;;;;3.80;3.33;;;24.20;99.90;;;;;;5094773;28;20174;-93
2022/07/07 06:57:05;;;;;;;3.13;2.93;;;24.20;99.90;;;;;;5109196;28;20473;-93
2022/07/07 06:59:31;;;;;;;3.40;3.07;;;24.20;99.90;;;;;;5110969;28;20470;-90
2022/07/07 07:01:59;;;;;;;7.07;3.87;;;24.20;99.90;;;;;;5112935;28;20536;-93
2022/07/07 07:04:24;;;;;;;3.43;3.13;;;24.30;99.90;;;;;;5110821;28;20683;-90
2022/07/07 07:06:50;;;;;;;3.33;3.10;;;24.30;99.90;;;;;;5108283;28;20480;-90
2022/07/07 07:09:19;;;;;;;3.80;3.50;;;24.40;99.90;;;;;;5099610;28;20185;-91
2022/07/07 07:11:45;;;;;;;3.40;3.10;;;24.40;99.90;;;;;;5094678;28;20664;-94
2022/07/07 07:14:13;;;;;;;3.30;3.10;;;24.40;99.90;;;;;;5105966;28;20480;-91
2022/07/07 07:16:39;;;;;;;3.50;3.20;;;24.50;99.90;;;;;;5093719;28;21027;-95
2022/07/07 07:19:05;;;;;;;4.00;3.63;;;24.60;99.90;;;;;;5105686;28;20426;-91
2022/07/07 07:21:30;;;;;;;8.73;3.70;;;24.60;99.90;;;;;;5111434;28;20467;-91
2022/07/07 07:23:56;;;;;;;4.83;3.13;;;24.70;99.90;;;;;;5109395;28;20422;-91
2022/07/07 07:26:22;;;;;;;4.70;4.30;;;24.70;99.90;;;;;;5114035;28;20720;-91
2022/07/07 07:28:48;;;;;;;3.87;3.57;;;24.80;99.90;;;;;;5110227;28;20422;-91
2022/07/07 07:31:14;;;;;;;3.63;3.33;;;24.90;99.90;;;;;;5113893;28;20225;-94
2022/07/07 07:33:39;;;;;;;3.40;3.10;;;24.90;99.90;;;;;;5096495;28;20175;-91
2022/07/07 07:36:08;;;;;;;6.10;3.60;;;25.00;99.90;;;;;;5108424;28;20193;-91
2022/07/07 07:38:37;;;;;;;3.97;3.63;;;25.00;99.90;;;;;;5115471;28;20239;-94
2022/07/07 07:41:04;;;;;;;4.00;3.63;;;25.00;99.90;;;;;;5114385;28;20457;-94
2022/07/07 07:43:30;;;;;;;3.60;3.30;;;25.10;99.90;;;;;;5114750;28;20414;-94
2022/07/07 07:45:56;;;;;;;5.33;3.30;;;25.10;99.90;;;;;;5117348;28;20446;-94
2022/07/07 07:48:21;;;;;;;3.93;3.63;;;25.10;99.90;;;;;;5119597;28;20514;-92
2022/07/07 07:50:47;;;;;;;2.77;2.53;;;25.20;99.90;;;;;;5112887;28;20241;-92
2022/07/07 07:53:13;;;;;;;3.60;3.30;;;25.20;99.90;;;;;;5097650;28;20205;-92
2022/07/07 07:55:39;;;;;;;3.27;3.03;;;25.30;99.90;;;;;;5100638;28;20285;-94
2022/07/07 07:58:05;;;;;;;4.30;3.87;;;25.30;99.90;;;;;;5106865;28;20727;-94
2022/07/07 08:00:30;;;;;;;3.47;3.17;;;25.30;99.90;;;;;;5107205;28;20457;-91
2022/07/07 08:02:57;;;;;;;4.03;3.63;;;25.30;99.90;;;;;;5108415;28;20456;-93
2022/07/07 08:05:23;;;;;;;3.47;3.20;;;25.40;99.90;;;;;;5106008;28;20475;-94
2022/07/07 08:07:48;;;;;;;3.20;2.93;;;25.50;99.90;;;;;;5126127;27;20531;-92
2022/07/07 08:10:15;;;;;;;2.93;2.73;;;25.50;99.90;;;;;;5101152;28;20451;-92
2022/07/07 08:12:42;;;;;;;3.30;3.00;;;25.60;99.90;;;;;;5108582;28;20206;-93
2022/07/07 08:15:09;;;;;;;2.70;2.50;;;25.60;99.30;;;;;;5100681;28;20825;-94
2022/07/07 08:17:35;;;;;;;3.67;3.40;;;25.70;99.50;;;;;;5093055;28;20435;-94
2022/07/07 08:20:01;;;;;;;3.83;3.53;;;25.80;98.70;;;;;;5098596;28;20423;-92
2022/07/07 08:22:26;;;;;;;3.10;2.90;;;25.80;99.10;;;;;;5112999;28;20629;-91
2022/07/07 08:24:53;;;;;;;3.37;3.10;;;25.90;99.00;;;;;;5111283;28;20434;-94
2022/07/07 08:27:19;;;;;;;3.97;3.57;;;26.00;99.10;;;;;;5117159;28;20222;-94
2022/07/07 08:29:45;;;;;;;2.97;2.77;;;26.00;99.00;;;;;;5118912;28;20471;-92
2022/07/07 08:32:12;;;;;;;12.30;3.40;;;26.00;98.90;;;;;;5116033;28;20886;-92
2022/07/07 08:34:38;;;;;;;3.37;3.10;;;26.00;98.30;;;;;;5100038;28;20207;-93
2022/07/07 08:37:05;;;;;;;3.30;3.00;;;26.10;98.20;;;;;;5116143;28;20447;-92
2022/07/07 08:39:31;;;;;;;3.10;2.80;;;26.10;98.20;;;;;;5115609;28;20909;-95
2022/07/07 08:41:59;;;;;;;3.40;3.10;;;26.20;98.50;;;;;;5115684;28;20452;-92
2022/07/07 08:44:25;;;;;;;3.30;3.00;;;26.20;98.10;;;;;;5111269;27;20942;-93
2022/07/07 08:46:50;;;;;;;3.50;2.77;;;26.30;98.00;;;;;;5103398;28;20484;-92
2022/07/07 08:49:16;;;;;;;3.30;3.00;;;26.30;97.90;;;;;;5104451;28;20507;-94
2022/07/07 08:51:43;;;;;;;2.87;2.67;;;26.40;98.00;;;;;;5109881;28;20258;-94
2022/07/07 08:54:14;;;;;;;3.90;3.07;;;26.40;98.30;;;;;;5104997;27;20433;-94
2022/07/07 08:56:41;;;;;;;3.87;3.33;;;26.50;98.10;;;;;;5107634;28;20535;-92
2022/07/07 08:59:08;;;;;;;3.73;3.43;;;26.60;98.50;;;;;;5109275;28;20454;-94
2022/07/07 09:01:35;;;;;;;3.00;2.80;;;26.60;97.80;;;;;;5098052;28;20956;-93
2022/07/07 09:04:01;;;;;;;3.87;3.57;;;26.70;98.00;;;;;;5112018;28;20442;-95
2022/07/07 09:06:27;;;;;;;4.60;3.47;;;26.60;98.20;;;;;;5109529;28;20471;-92
2022/07/07 09:08:54;;;;;;;3.47;3.27;;;26.70;97.00;;;;;;5096083;28;20508;-92
2022/07/07 09:11:32;;;;;;;3.00;2.80;;;26.70;96.60;;;;;;5099362;28;20434;-91
2022/07/07 09:14:08;;;;;;;3.10;2.80;;;26.70;96.90;;;;;;5114399;28;20403;-91
2022/07/07 09:16:38;;;;;;;3.67;3.37;;;26.70;96.90;;;;;;5110920;28;21043;-92
2022/07/07 09:19:16;;;;;;;3.50;3.20;;;26.80;97.10;;;;;;5105276;28;20428;-92
2022/07/07 09:21:42;;;;;;;3.80;3.13;;;26.90;97.10;;;;;;5104538;28;20479;-94
2022/07/07 09:24:07;;;;;;;3.50;3.20;;;27.00;96.90;;;;;;5104301;28;20461;-94
2022/07/07 09:26:43;;;;;;;3.70;3.40;;;27.10;97.00;;;;;;5113492;28;20510;-92
2022/07/07 09:29:13;;;;;;;2.83;2.63;;;27.20;96.60;;;;;;5114281;28;20167;-94
2022/07/07 09:31:58;;;;;;;3.30;3.00;;;27.30;96.60;;;;;;5107657;28;20535;-94
2022/07/07 09:34:34;;;;;;;3.00;2.80;;;27.40;95.90;;;;;;5106886;28;20477;-92
2022/07/07 09:39:49;;;;;;;3.00;2.80;;;27.60;95.60;;;;;;5101632;28;20463;-92
2022/07/07 09:42:36;;;;;;;2.87;2.67;;;27.50;96.90;;;;;;5095300;28;20536;-92
2022/07/07 09:45:08;;;;;;;3.10;2.90;;;27.50;96.50;;;;;;5109633;28;20442;-95
2022/07/07 09:47:33;;;;;;;3.17;2.90;;;27.60;96.10;;;;;;5094753;28;20480;-95
2022/07/07 09:50:08;;;;;;;2.87;2.67;;;27.70;96.30;;;;;;5096557;28;20446;-94
2022/07/07 09:52:37;;;;;;;2.63;2.50;;;27.70;96.20;;;;;;5094477;28;20217;-92
2022/07/07 09:55:06;;;;;;;2.70;2.50;;;27.80;96.00;;;;;;5110001;28;20419;-94
2022/07/07 09:57:32;;;;;;;2.83;2.63;;;27.80;96.10;;;;;;5115495;28;20449;-94
2022/07/07 09:59:57;;;;;;;3.20;2.90;;;27.90;93.70;;;;;;5114274;28;20491;-94
2022/07/07 10:02:25;;;;;;;2.80;2.60;;;27.90;93.30;;;;;;5114672;28;20199;-92
2022/07/07 10:04:53;;;;;;;2.70;2.50;;;28.00;94.50;;;;;;5109470;28;20187;-91
2022/07/07 10:07:21;;;;;;;3.00;2.80;;;28.00;93.30;;;;;;5113039;28;20521;-92
2022/07/07 10:09:56;;;;;;;2.90;2.67;;;28.00;92.70;;;;;;5098988;28;20520;-92
2022/07/07 10:12:27;;;;;;;2.70;2.50;;;28.10;92.40;;;;;;5100516;28;20439;-93
2022/07/07 10:15:01;;;;;;;2.77;2.57;;;28.20;90.90;;;;;;5102004;28;20539;-91
2022/07/07 10:17:28;;;;;;;4.63;2.67;;;28.20;90.00;;;;;;5111479;28;20445;-94
2022/07/07 10:19:54;;;;;;;2.70;2.50;;;28.20;90.20;;;;;;5113511;28;20428;-94
2022/07/07 10:22:26;;;;;;;2.30;2.20;;;28.20;89.10;;;;;;5114650;28;20440;-92
2022/07/07 10:24:53;;;;;;;2.70;2.50;;;28.30;90.80;;;;;;5106708;28;20416;-92
2022/07/07 10:27:21;;;;;;;2.37;2.23;;;28.30;91.70;;;;;;5096424;28;20467;-93
2022/07/07 10:29:51;;;;;;;3.17;2.80;;;28.40;91.40;;;;;;5112186;28;20805;-92
2022/07/07 10:32:34;;;;;;;2.40;2.20;;;28.40;88.70;;;;;;5107961;28;20486;-92
2022/07/07 10:35:13;;;;;;;2.93;2.73;;;28.40;87.60;;;;;;5124299;27;20491;-94
2022/07/07 10:37:50;;;;;;;2.77;2.57;;;28.50;89.00;;;;;;5102362;28;20447;-95
2022/07/07 10:40:29;;;;;;;3.23;2.50;;;28.50;89.30;;;;;;5115214;28;20435;-93
2022/07/07 10:43:25;;;;;;;2.50;2.30;;;28.40;89.10;;;;;;5097564;28;20447;-92
2022/07/07 10:45:54;;;;;;;2.87;2.67;;;28.40;89.20;;;;;;5097611;28;20465;-94
2022/07/07 10:48:46;;;;;;;2.30;2.20;;;28.40;88.50;;;;;;5096716;28;20432;-94
2022/07/07 10:51:23;;;;;;;3.00;2.80;;;28.40;88.30;;;;;;5110658;28;20441;-93
2022/07/07 10:54:08;;;;;;;2.70;2.57;;;28.30;91.80;;;;;;5109480;28;20889;-94
2022/07/07 10:56:59;;;;;;;2.43;2.23;;;28.20;92.30;;;;;;5101165;28;20455;-94
2022/07/07 10:59:25;;;;;;;2.43;2.23;;;28.20;93.10;;;;;;5101876;28;20436;-95
2022/07/07 11:02:03;;;;;;;2.50;2.30;;;28.20;92.80;;;;;;5109728;28;20521;-94
2022/07/07 11:04:48;;;;;;;2.07;1.97;;;28.10;91.30;;;;;;5110097;28;20236;-91
2022/07/07 11:07:18;;;;;;;2.43;2.23;;;28.10;93.30;;;;;;5107233;28;20495;-92
2022/07/07 11:09:57;;;;;;;2.90;2.70;;;28.10;92.60;;;;;;5073415;28;20441;-94
2022/07/07 11:12:41;;;;;;;2.70;2.50;;;28.10;86.30;;;;;;5091266;28;20457;-92
2022/07/07 11:15:20;;;;;;;2.70;2.50;;;28.10;92.50;;;;;;5091261;28;20420;-94
2022/07/07 11:17:55;;;;;;;3.37;2.43;;;28.10;90.10;;;;;;5093338;28;20459;-95
2022/07/07 11:20:23;;;;;;;4.67;4.37;;;28.10;91.20;;;;;;5093235;28;20471;-92
2022/07/07 11:22:52;;;;;;;3.87;3.37;;;28.10;91.90;;;;;;5090865;28;20796;-92
2022/07/07 11:25:23;;;;;;;2.23;2.13;;;28.10;92.70;;;;;;5091726;28;20432;-92
2022/07/07 11:27:51;;;;;;;4.50;2.43;;;28.00;89.80;;;;;;5094342;28;20664;-91
2022/07/07 11:30:22;;;;;;;4.03;2.50;;;28.00;90.10;;;;;;5110604;28;20424;-94
2022/07/07 11:32:49;;;;;;;3.43;2.57;;;28.00;91.00;;;;;;5113340;28;20980;-92
2022/07/07 11:35:15;;;;;;;2.77;2.57;;;28.00;90.30;;;;;;5113663;28;20475;-94
2022/07/07 11:37:45;;;;;;;2.53;2.33;;;28.00;91.00;;;;;;5097641;28;20452;-92
2022/07/07 11:40:13;;;;;;;2.77;2.57;;;28.00;91.70;;;;;;5089275;28;20421;-92
2022/07/07 11:42:43;;;;;;;3.60;2.90;;;28.00;86.40;;;;;;5088502;28;20469;-94
2022/07/07 11:45:22;;;;;;;2.80;2.60;;;28.00;89.60;;;;;;5091684;28;20780;-91
2022/07/07 11:47:49;;;;;;;2.67;2.40;;;28.00;90.70;;;;;;5105648;28;20477;-91
2022/07/07 11:50:16;;;;;;;2.70;2.50;;;28.00;89.30;;;;;;5089367;28;20414;-94
2022/07/07 11:52:56;;;;;;;2.53;2.33;;;28.10;90.90;;;;;;5107447;28;20440;-94
2022/07/07 11:55:23;;;;;;;2.87;2.67;;;28.10;90.60;;;;;;5110520;28;20436;-93
2022/07/07 11:57:52;;;;;;;2.50;2.30;;;28.10;87.80;;;;;;5099236;28;20447;-94
2022/07/07 12:00:20;;;;;;;2.80;2.60;;;28.20;88.10;;;;;;5132671;28;20489;-94
2022/07/07 12:02:48;;;;;;;2.40;2.30;;;28.20;89.30;;;;;;5111728;28;20429;-95
2022/07/07 12:05:23;;;;;;;2.83;2.20;;;28.20;82.70;;;;;;5109583;28;20450;-94
2022/07/07 12:07:58;;;;;;;2.30;2.10;;;28.20;86.60;;;;;;5090694;28;20492;-91
2022/07/07 12:10:27;;;;;;;2.17;2.07;;;28.20;81.80;;;;;;5095313;28;20931;-95
2022/07/07 12:13:13;;;;;;;2.30;2.10;;;28.20;81.90;;;;;;5103617;28;20452;-92
2022/07/07 12:15:48;;;;;;;2.60;2.40;;;28.30;83.00;;;;;;5096967;28;20432;-91
2022/07/07 12:18:20;;;;;;;4.90;2.53;;;28.30;84.30;;;;;;5096500;28;20448;-91
2022/07/07 12:20:59;;;;;;;2.53;2.33;;;28.30;82.20;;;;;;5116788;28;20436;-92
2022/07/07 12:23:25;;;;;;;2.50;2.30;;;28.40;85.60;;;;;;5116160;28;20439;-94
2022/07/07 12:25:50;;;;;;;2.20;1.97;;;28.40;86.20;;;;;;5115111;28;20455;-95
2022/07/07 12:28:19;;;;;;;2.63;2.50;;;28.40;89.10;;;;;;5112961;28;20215;-91
2022/07/07 12:30:52;;;;;;;2.10;2.00;;;28.30;86.60;;;;;;5098556;28;20528;-94
2022/07/07 12:33:36;;;;;;;2.40;2.20;;;28.30;89.90;;;;;;5095767;28;20652;-94
2022/07/07 12:36:25;;;;;;;2.50;2.30;;;28.20;90.90;;;;;;5109910;28;20439;-92
2022/07/07 12:38:58;;;;;;;2.83;2.43;;;28.20;90.00;;;;;;5102804;28;20440;-92
2022/07/07 12:41:32;;;;;;;2.60;2.40;;;28.20;88.40;;;;;;5101367;28;20551;-93
2022/07/07 12:44:23;;;;;;;2.63;2.43;;;28.10;87.70;;;;;;5115412;28;20417;-91
2022/07/07 12:46:49;;;;;;;2.80;2.30;;;28.10;89.80;;;;;;5112503;28;20488;-92
2022/07/07 12:49:16;;;;;;;4.93;2.83;;;28.10;88.80;;;;;;5116653;28;20416;-93
2022/07/07 12:51:49;;;;;;;3.17;2.90;;;28.10;87.90;;;;;;5116519;28;20436;-93
2022/07/07 12:54:25;;;;;;;3.10;2.90;;;28.00;83.70;;;;;;5116336;28;20413;-92